sensor_id;sensor_type;location;lat;lon;timestamp;P1;durP1;ratioP1;P2;durP2;ratioP2
10596;SDS011;5346;48.766;8.674;2023-01-20T00:02:29;6.20;;;3.93;;
10596;SDS011;5346;48.766;8.674;2023-01-20T00:05:03;11.00;;;4.20;;
10596;SDS011;5346;48.766;8.674;2023-01-20T00:07:31;11.87;;;4.80;;
10596;SDS011;5346;48.766;8.674;2023-01-20T00:10:06;7.33;;;4.40;;
10596;SDS011;5346;48.766;8.674;2023-01-20T00:12:41;7.27;;;3.97;;
10596;SDS011;5346;48.766;8.674;2023-01-20T00:15:10;8.77;;;4.60;;
10596;SDS011;5346;48.766;8.674;2023-01-20T00:17:44;9.63;;;4.47;;
10596;SDS011;5346;48.766;8.674;2023-01-20T00:20:18;7.67;;;4.57;;
10596;SDS011;5346;48.766;8.674;2023-01-20T00:22:46;7.47;;;3.97;;
10596;SDS011;5346;48.766;8.674;2023-01-20T00:25:21;9.33;;;4.83;;
10596;SDS011;5346;48.766;8.674;2023-01-20T00:27:55;7.50;;;4.53;;
10596;SDS011;5346;48.766;8.674;2023-01-20T00:30:30;7.67;;;4.17;;
10596;SDS011;5346;48.766;8.674;2023-01-20T00:33:04;7.33;;;4.60;;
10596;SDS011;5346;48.766;8.674;2023-01-20T00:35:38;7.00;;;4.13;;
10596;SDS011;5346;48.766;8.674;2023-01-20T00:38:12;7.93;;;4.27;;
10596;SDS011;5346;48.766;8.674;2023-01-20T00:40:52;9.87;;;5.20;;
10596;SDS011;5346;48.766;8.674;2023-01-20T00:43:22;7.00;;;4.10;;
10596;SDS011;5346;48.766;8.674;2023-01-20T00:45:58;10.83;;;5.00;;
10596;SDS011;5346;48.766;8.674;2023-01-20T00:48:25;9.37;;;4.90;;
10596;SDS011;5346;48.766;8.674;2023-01-20T00:51:00;8.93;;;4.63;;
10596;SDS011;5346;48.766;8.674;2023-01-20T00:53:28;9.33;;;4.73;;
10596;SDS011;5346;48.766;8.674;2023-01-20T00:56:02;8.03;;;4.77;;
10596;SDS011;5346;48.766;8.674;2023-01-20T00:58:41;7.50;;;4.57;;
10596;SDS011;5346;48.766;8.674;2023-01-20T01:01:16;7.37;;;4.40;;
10596;SDS011;5346;48.766;8.674;2023-01-20T01:03:45;7.23;;;4.67;;
10596;SDS011;5346;48.766;8.674;2023-01-20T01:06:18;8.53;;;5.17;;
10596;SDS011;5346;48.766;8.674;2023-01-20T01:08:52;11.07;;;5.67;;
10596;SDS011;5346;48.766;8.674;2023-01-20T01:11:24;8.57;;;5.83;;
10596;SDS011;5346;48.766;8.674;2023-01-20T01:13:57;10.97;;;6.23;;
10596;SDS011;5346;48.766;8.674;2023-01-20T01:16:31;10.70;;;5.90;;
10596;SDS011;5346;48.766;8.674;2023-01-20T01:18:59;8.13;;;5.53;;
10596;SDS011;5346;48.766;8.674;2023-01-20T01:21:32;11.43;;;5.40;;
10596;SDS011;5346;48.766;8.674;2023-01-20T01:24:06;11.07;;;5.47;;
10596;SDS011;5346;48.766;8.674;2023-01-20T01:26:34;11.57;;;5.47;;
10596;SDS011;5346;48.766;8.674;2023-01-20T01:29:08;9.97;;;5.17;;
10596;SDS011;5346;48.766;8.674;2023-01-20T01:31:49;8.77;;;5.67;;
10596;SDS011;5346;48.766;8.674;2023-01-20T01:34:23;10.10;;;5.80;;
10596;SDS011;5346;48.766;8.674;2023-01-20T01:36:51;7.30;;;4.77;;
10596;SDS011;5346;48.766;8.674;2023-01-20T01:39:26;11.43;;;5.13;;
10596;SDS011;5346;48.766;8.674;2023-01-20T01:41:53;8.57;;;5.10;;
10596;SDS011;5346;48.766;8.674;2023-01-20T01:44:27;7.47;;;4.90;;
10596;SDS011;5346;48.766;8.674;2023-01-20T01:47:04;9.40;;;4.87;;
10596;SDS011;5346;48.766;8.674;2023-01-20T01:49:31;7.27;;;4.87;;
10596;SDS011;5346;48.766;8.674;2023-01-20T01:52:06;11.70;;;4.93;;
10596;SDS011;5346;48.766;8.674;2023-01-20T01:54:40;10.07;;;4.63;;
10596;SDS011;5346;48.766;8.674;2023-01-20T01:57:10;14.13;;;5.10;;
10596;SDS011;5346;48.766;8.674;2023-01-20T01:59:44;10.50;;;4.80;;
10596;SDS011;5346;48.766;8.674;2023-01-20T02:02:18;8.30;;;4.83;;
10596;SDS011;5346;48.766;8.674;2023-01-20T02:04:49;11.27;;;4.80;;
10596;SDS011;5346;48.766;8.674;2023-01-20T02:07:22;8.00;;;4.67;;
10596;SDS011;5346;48.766;8.674;2023-01-20T02:09:50;9.23;;;4.97;;
10596;SDS011;5346;48.766;8.674;2023-01-20T02:12:24;6.30;;;3.70;;
10596;SDS011;5346;48.766;8.674;2023-01-20T02:14:53;7.87;;;4.60;;
10596;SDS011;5346;48.766;8.674;2023-01-20T02:20:42;9.03;;;3.83;;
10596;SDS011;5346;48.766;8.674;2023-01-20T02:23:51;6.47;;;3.63;;
10596;SDS011;5346;48.766;8.674;2023-01-20T02:26:43;6.73;;;3.63;;
10596;SDS011;5346;48.766;8.674;2023-01-20T02:32:56;6.63;;;3.40;;
10596;SDS011;5346;48.766;8.674;2023-01-20T02:36:01;4.23;;;3.13;;
10596;SDS011;5346;48.766;8.674;2023-01-20T02:41:34;5.67;;;3.27;;
10596;SDS011;5346;48.766;8.674;2023-01-20T02:49:51;5.23;;;2.40;;
10596;SDS011;5346;48.766;8.674;2023-01-20T02:52:31;3.87;;;2.90;;
10596;SDS011;5346;48.766;8.674;2023-01-20T02:55:03;10.77;;;3.40;;
10596;SDS011;5346;48.766;8.674;2023-01-20T02:57:44;6.30;;;3.17;;
10596;SDS011;5346;48.766;8.674;2023-01-20T03:00:22;8.63;;;3.50;;
10596;SDS011;5346;48.766;8.674;2023-01-20T03:03:03;5.47;;;3.60;;
10596;SDS011;5346;48.766;8.674;2023-01-20T03:05:44;4.70;;;3.07;;
10596;SDS011;5346;48.766;8.674;2023-01-20T03:08:28;6.50;;;3.60;;
10596;SDS011;5346;48.766;8.674;2023-01-20T03:11:01;6.80;;;3.30;;
10596;SDS011;5346;48.766;8.674;2023-01-20T03:16:39;7.37;;;3.17;;
10596;SDS011;5346;48.766;8.674;2023-01-20T03:19:14;10.07;;;3.30;;
10596;SDS011;5346;48.766;8.674;2023-01-20T03:21:45;7.67;;;3.33;;
10596;SDS011;5346;48.766;8.674;2023-01-20T03:24:21;7.63;;;3.33;;
10596;SDS011;5346;48.766;8.674;2023-01-20T03:26:56;5.77;;;3.40;;
10596;SDS011;5346;48.766;8.674;2023-01-20T03:29:24;6.10;;;3.13;;
10596;SDS011;5346;48.766;8.674;2023-01-20T03:31:58;10.53;;;3.57;;
10596;SDS011;5346;48.766;8.674;2023-01-20T03:34:40;6.67;;;3.50;;
10596;SDS011;5346;48.766;8.674;2023-01-20T03:37:16;8.40;;;3.50;;
10596;SDS011;5346;48.766;8.674;2023-01-20T03:39:50;4.50;;;3.13;;
10596;SDS011;5346;48.766;8.674;2023-01-20T03:42:33;6.87;;;3.47;;
10596;SDS011;5346;48.766;8.674;2023-01-20T03:45:20;5.10;;;2.87;;
10596;SDS011;5346;48.766;8.674;2023-01-20T03:48:05;4.60;;;3.13;;
10596;SDS011;5346;48.766;8.674;2023-01-20T03:50:56;8.17;;;3.90;;
10596;SDS011;5346;48.766;8.674;2023-01-20T03:53:38;7.37;;;3.43;;
10596;SDS011;5346;48.766;8.674;2023-01-20T03:56:36;8.00;;;3.43;;
10596;SDS011;5346;48.766;8.674;2023-01-20T03:59:16;7.63;;;3.43;;
10596;SDS011;5346;48.766;8.674;2023-01-20T04:01:45;6.03;;;3.37;;
10596;SDS011;5346;48.766;8.674;2023-01-20T04:04:20;9.27;;;4.00;;
10596;SDS011;5346;48.766;8.674;2023-01-20T04:06:48;12.53;;;4.53;;
10596;SDS011;5346;48.766;8.674;2023-01-20T04:09:25;6.43;;;4.13;;
10596;SDS011;5346;48.766;8.674;2023-01-20T04:11:56;6.00;;;3.17;;
10596;SDS011;5346;48.766;8.674;2023-01-20T04:14:31;9.00;;;4.17;;
10596;SDS011;5346;48.766;8.674;2023-01-20T04:17:01;9.47;;;4.87;;
10596;SDS011;5346;48.766;8.674;2023-01-20T04:19:39;7.37;;;4.27;;
10596;SDS011;5346;48.766;8.674;2023-01-20T04:22:14;10.27;;;4.70;;
10596;SDS011;5346;48.766;8.674;2023-01-20T04:24:56;6.83;;;4.10;;
10596;SDS011;5346;48.766;8.674;2023-01-20T04:27:43;6.37;;;4.20;;
10596;SDS011;5346;48.766;8.674;2023-01-20T04:30:23;9.30;;;4.93;;
10596;SDS011;5346;48.766;8.674;2023-01-20T04:33:05;8.77;;;4.47;;
10596;SDS011;5346;48.766;8.674;2023-01-20T04:35:39;12.33;;;4.70;;
10596;SDS011;5346;48.766;8.674;2023-01-20T04:38:07;7.23;;;4.33;;
10596;SDS011;5346;48.766;8.674;2023-01-20T04:40:41;12.63;;;5.00;;
10596;SDS011;5346;48.766;8.674;2023-01-20T04:43:08;9.93;;;5.10;;
10596;SDS011;5346;48.766;8.674;2023-01-20T04:45:44;6.90;;;4.40;;
10596;SDS011;5346;48.766;8.674;2023-01-20T04:48:19;7.93;;;4.57;;
10596;SDS011;5346;48.766;8.674;2023-01-20T04:50:53;7.67;;;3.67;;
10596;SDS011;5346;48.766;8.674;2023-01-20T04:53:20;5.87;;;4.07;;
10596;SDS011;5346;48.766;8.674;2023-01-20T04:55:54;7.30;;;4.17;;
10596;SDS011;5346;48.766;8.674;2023-01-20T04:58:21;8.03;;;4.57;;
10596;SDS011;5346;48.766;8.674;2023-01-20T05:00:56;7.63;;;4.27;;
10596;SDS011;5346;48.766;8.674;2023-01-20T05:03:26;6.90;;;4.10;;
10596;SDS011;5346;48.766;8.674;2023-01-20T05:06:01;8.07;;;4.60;;
10596;SDS011;5346;48.766;8.674;2023-01-20T05:08:28;9.60;;;4.60;;
10596;SDS011;5346;48.766;8.674;2023-01-20T05:11:03;7.67;;;4.50;;
10596;SDS011;5346;48.766;8.674;2023-01-20T05:13:38;7.87;;;4.30;;
10596;SDS011;5346;48.766;8.674;2023-01-20T05:16:12;7.20;;;3.90;;
10596;SDS011;5346;48.766;8.674;2023-01-20T05:18:48;6.73;;;4.37;;
10596;SDS011;5346;48.766;8.674;2023-01-20T05:21:23;8.53;;;4.63;;
10596;SDS011;5346;48.766;8.674;2023-01-20T05:24:10;8.60;;;4.40;;
10596;SDS011;5346;48.766;8.674;2023-01-20T05:26:38;8.13;;;4.33;;
10596;SDS011;5346;48.766;8.674;2023-01-20T05:29:12;8.17;;;4.00;;
10596;SDS011;5346;48.766;8.674;2023-01-20T05:31:52;5.93;;;4.00;;
10596;SDS011;5346;48.766;8.674;2023-01-20T05:34:27;8.13;;;4.37;;
10596;SDS011;5346;48.766;8.674;2023-01-20T05:36:54;6.47;;;4.27;;
10596;SDS011;5346;48.766;8.674;2023-01-20T05:39:28;5.23;;;3.50;;
10596;SDS011;5346;48.766;8.674;2023-01-20T05:42:02;7.73;;;4.13;;
10596;SDS011;5346;48.766;8.674;2023-01-20T05:44:50;7.27;;;4.30;;
10596;SDS011;5346;48.766;8.674;2023-01-20T05:47:24;6.00;;;3.87;;
10596;SDS011;5346;48.766;8.674;2023-01-20T05:52:00;9.93;;;4.93;;
10596;SDS011;5346;48.766;8.674;2023-01-20T05:54:42;10.13;;;4.10;;
10596;SDS011;5346;48.766;8.674;2023-01-20T05:57:09;6.70;;;4.23;;
10596;SDS011;5346;48.766;8.674;2023-01-20T05:59:44;7.97;;;4.33;;
10596;SDS011;5346;48.766;8.674;2023-01-20T06:02:13;6.90;;;4.40;;
10596;SDS011;5346;48.766;8.674;2023-01-20T06:04:50;6.67;;;4.43;;
10596;SDS011;5346;48.766;8.674;2023-01-20T06:07:18;8.50;;;4.47;;
10596;SDS011;5346;48.766;8.674;2023-01-20T06:09:53;6.97;;;4.33;;
10596;SDS011;5346;48.766;8.674;2023-01-20T06:12:27;9.23;;;4.57;;
10596;SDS011;5346;48.766;8.674;2023-01-20T06:15:01;7.73;;;4.30;;
10596;SDS011;5346;48.766;8.674;2023-01-20T06:17:29;6.57;;;4.07;;
10596;SDS011;5346;48.766;8.674;2023-01-20T06:20:04;9.47;;;5.37;;
10596;SDS011;5346;48.766;8.674;2023-01-20T06:22:31;12.07;;;4.67;;
10596;SDS011;5346;48.766;8.674;2023-01-20T06:25:06;8.30;;;4.53;;
10596;SDS011;5346;48.766;8.674;2023-01-20T06:27:40;10.93;;;4.53;;
10596;SDS011;5346;48.766;8.674;2023-01-20T06:30:08;10.90;;;4.83;;
10596;SDS011;5346;48.766;8.674;2023-01-20T06:32:44;8.50;;;4.77;;
10596;SDS011;5346;48.766;8.674;2023-01-20T06:35:13;10.07;;;4.37;;
10596;SDS011;5346;48.766;8.674;2023-01-20T06:37:47;7.50;;;4.90;;
10596;SDS011;5346;48.766;8.674;2023-01-20T06:40:15;6.63;;;4.87;;
10596;SDS011;5346;48.766;8.674;2023-01-20T06:42:50;8.77;;;5.03;;
10596;SDS011;5346;48.766;8.674;2023-01-20T06:45:23;10.80;;;4.97;;
10596;SDS011;5346;48.766;8.674;2023-01-20T06:47:58;9.90;;;5.20;;
10596;SDS011;5346;48.766;8.674;2023-01-20T06:50:38;11.27;;;5.63;;
10596;SDS011;5346;48.766;8.674;2023-01-20T06:53:05;9.50;;;4.70;;
10596;SDS011;5346;48.766;8.674;2023-01-20T06:55:39;9.93;;;5.90;;
10596;SDS011;5346;48.766;8.674;2023-01-20T06:58:07;9.30;;;5.10;;
10596;SDS011;5346;48.766;8.674;2023-01-20T07:00:40;7.70;;;4.90;;
10596;SDS011;5346;48.766;8.674;2023-01-20T07:03:08;8.27;;;4.80;;
10596;SDS011;5346;48.766;8.674;2023-01-20T07:05:42;9.00;;;5.27;;
10596;SDS011;5346;48.766;8.674;2023-01-20T07:08:17;7.30;;;4.37;;
10596;SDS011;5346;48.766;8.674;2023-01-20T07:10:50;8.77;;;4.80;;
10596;SDS011;5346;48.766;8.674;2023-01-20T07:13:18;11.03;;;5.30;;
10596;SDS011;5346;48.766;8.674;2023-01-20T07:15:51;9.70;;;5.50;;
10596;SDS011;5346;48.766;8.674;2023-01-20T07:18:25;9.83;;;5.73;;
10596;SDS011;5346;48.766;8.674;2023-01-20T07:20:59;10.97;;;5.50;;
10596;SDS011;5346;48.766;8.674;2023-01-20T07:23:34;12.00;;;6.07;;
10596;SDS011;5346;48.766;8.674;2023-01-20T07:26:10;11.13;;;5.77;;
10596;SDS011;5346;48.766;8.674;2023-01-20T07:28:46;11.23;;;5.27;;
10596;SDS011;5346;48.766;8.674;2023-01-20T07:31:15;12.17;;;5.30;;
10596;SDS011;5346;48.766;8.674;2023-01-20T07:33:51;9.40;;;5.70;;
10596;SDS011;5346;48.766;8.674;2023-01-20T07:36:20;8.33;;;5.73;;
10596;SDS011;5346;48.766;8.674;2023-01-20T07:38:54;10.87;;;5.17;;
10596;SDS011;5346;48.766;8.674;2023-01-20T07:41:22;9.70;;;6.07;;
10596;SDS011;5346;48.766;8.674;2023-01-20T07:43:55;9.00;;;5.63;;
10596;SDS011;5346;48.766;8.674;2023-01-20T07:46:30;12.30;;;6.00;;
10596;SDS011;5346;48.766;8.674;2023-01-20T07:49:03;11.60;;;5.73;;
10596;SDS011;5346;48.766;8.674;2023-01-20T07:51:31;11.27;;;6.20;;
10596;SDS011;5346;48.766;8.674;2023-01-20T07:54:11;11.77;;;5.90;;
10596;SDS011;5346;48.766;8.674;2023-01-20T07:56:45;11.70;;;5.80;;
10596;SDS011;5346;48.766;8.674;2023-01-20T07:59:19;10.50;;;5.90;;
10596;SDS011;5346;48.766;8.674;2023-01-20T08:01:53;13.47;;;5.97;;
10596;SDS011;5346;48.766;8.674;2023-01-20T08:04:28;10.80;;;5.97;;
10596;SDS011;5346;48.766;8.674;2023-01-20T08:06:55;10.43;;;6.10;;
10596;SDS011;5346;48.766;8.674;2023-01-20T08:09:29;12.67;;;6.33;;
10596;SDS011;5346;48.766;8.674;2023-01-20T08:12:03;17.07;;;6.47;;
10596;SDS011;5346;48.766;8.674;2023-01-20T08:14:32;11.97;;;5.67;;
10596;SDS011;5346;48.766;8.674;2023-01-20T08:17:05;12.77;;;5.90;;
10596;SDS011;5346;48.766;8.674;2023-01-20T08:19:39;10.73;;;6.20;;
10596;SDS011;5346;48.766;8.674;2023-01-20T08:22:07;10.90;;;6.20;;
10596;SDS011;5346;48.766;8.674;2023-01-20T08:24:41;8.93;;;5.43;;
10596;SDS011;5346;48.766;8.674;2023-01-20T08:27:15;13.57;;;5.93;;
10596;SDS011;5346;48.766;8.674;2023-01-20T08:29:43;10.10;;;5.60;;
10596;SDS011;5346;48.766;8.674;2023-01-20T08:32:17;9.63;;;6.07;;
10596;SDS011;5346;48.766;8.674;2023-01-20T08:34:45;10.47;;;5.80;;
10596;SDS011;5346;48.766;8.674;2023-01-20T08:37:19;10.23;;;6.13;;
10596;SDS011;5346;48.766;8.674;2023-01-20T08:39:47;8.97;;;6.03;;
10596;SDS011;5346;48.766;8.674;2023-01-20T08:42:15;10.97;;;6.27;;
10596;SDS011;5346;48.766;8.674;2023-01-20T08:44:52;9.37;;;5.27;;
10596;SDS011;5346;48.766;8.674;2023-01-20T08:47:26;10.33;;;6.20;;
10596;SDS011;5346;48.766;8.674;2023-01-20T08:49:59;11.20;;;5.67;;
10596;SDS011;5346;48.766;8.674;2023-01-20T08:52:40;10.43;;;5.47;;
10596;SDS011;5346;48.766;8.674;2023-01-20T08:55:14;7.73;;;5.33;;
10596;SDS011;5346;48.766;8.674;2023-01-20T08:57:42;9.90;;;5.70;;
10596;SDS011;5346;48.766;8.674;2023-01-20T09:00:17;9.03;;;5.97;;
10596;SDS011;5346;48.766;8.674;2023-01-20T09:02:45;9.63;;;6.00;;
10596;SDS011;5346;48.766;8.674;2023-01-20T09:05:20;8.57;;;5.63;;
10596;SDS011;5346;48.766;8.674;2023-01-20T09:07:47;7.73;;;5.43;;
10596;SDS011;5346;48.766;8.674;2023-01-20T09:10:22;7.67;;;5.10;;
10596;SDS011;5346;48.766;8.674;2023-01-20T09:12:49;8.93;;;4.70;;
10596;SDS011;5346;48.766;8.674;2023-01-20T09:15:23;10.47;;;4.47;;
10596;SDS011;5346;48.766;8.674;2023-01-20T09:17:58;6.60;;;4.43;;
10596;SDS011;5346;48.766;8.674;2023-01-20T09:20:32;7.43;;;4.00;;
10596;SDS011;5346;48.766;8.674;2023-01-20T09:23:00;6.90;;;4.00;;
10596;SDS011;5346;48.766;8.674;2023-01-20T09:25:35;7.30;;;4.27;;
10596;SDS011;5346;48.766;8.674;2023-01-20T09:28:02;4.83;;;3.77;;
10596;SDS011;5346;48.766;8.674;2023-01-20T09:30:36;5.50;;;3.70;;
10596;SDS011;5346;48.766;8.674;2023-01-20T09:33:04;7.23;;;3.53;;
10596;SDS011;5346;48.766;8.674;2023-01-20T09:35:38;5.60;;;3.53;;
10596;SDS011;5346;48.766;8.674;2023-01-20T09:38:06;3.83;;;2.90;;
10596;SDS011;5346;48.766;8.674;2023-01-20T09:47:03;4.23;;;3.27;;
10596;SDS011;5346;48.766;8.674;2023-01-20T09:56:18;6.00;;;2.93;;
10596;SDS011;5346;48.766;8.674;2023-01-20T09:59:00;3.87;;;3.10;;
10596;SDS011;5346;48.766;8.674;2023-01-20T10:01:59;4.60;;;3.10;;
10596;SDS011;5346;48.766;8.674;2023-01-20T10:04:55;3.97;;;2.93;;
10596;SDS011;5346;48.766;8.674;2023-01-20T10:07:50;4.33;;;3.50;;
10596;SDS011;5346;48.766;8.674;2023-01-20T10:10:37;6.80;;;3.17;;
10596;SDS011;5346;48.766;8.674;2023-01-20T10:13:24;3.63;;;2.87;;
10596;SDS011;5346;48.766;8.674;2023-01-20T10:16:07;2.90;;;2.60;;
10596;SDS011;5346;48.766;8.674;2023-01-20T10:18:46;5.13;;;2.70;;
10596;SDS011;5346;48.766;8.674;2023-01-20T10:21:33;2.53;;;2.07;;
10596;SDS011;5346;48.766;8.674;2023-01-20T10:24:12;3.40;;;2.63;;
10596;SDS011;5346;48.766;8.674;2023-01-20T10:29:32;5.90;;;2.60;;
10596;SDS011;5346;48.766;8.674;2023-01-20T10:32:03;3.27;;;2.40;;
10596;SDS011;5346;48.766;8.674;2023-01-20T10:35:17;2.93;;;2.40;;
10596;SDS011;5346;48.766;8.674;2023-01-20T10:37:51;3.80;;;2.63;;
10596;SDS011;5346;48.766;8.674;2023-01-20T10:40:30;4.90;;;2.60;;
10596;SDS011;5346;48.766;8.674;2023-01-20T10:43:16;4.13;;;2.67;;
10596;SDS011;5346;48.766;8.674;2023-01-20T10:51:28;5.63;;;2.60;;
10596;SDS011;5346;48.766;8.674;2023-01-20T10:57:02;5.83;;;2.47;;
10596;SDS011;5346;48.766;8.674;2023-01-20T10:59:46;3.33;;;2.50;;
10596;SDS011;5346;48.766;8.674;2023-01-20T11:02:24;3.70;;;2.37;;
10596;SDS011;5346;48.766;8.674;2023-01-20T11:05:15;5.17;;;2.70;;
10596;SDS011;5346;48.766;8.674;2023-01-20T11:07:51;4.77;;;2.60;;
10596;SDS011;5346;48.766;8.674;2023-01-20T11:10:22;2.80;;;2.50;;
10596;SDS011;5346;48.766;8.674;2023-01-20T11:12:59;5.67;;;2.80;;
10596;SDS011;5346;48.766;8.674;2023-01-20T11:15:34;2.73;;;2.50;;
10596;SDS011;5346;48.766;8.674;2023-01-20T11:28:59;3.37;;;2.40;;
10596;SDS011;5346;48.766;8.674;2023-01-20T11:31:56;4.83;;;2.70;;
10596;SDS011;5346;48.766;8.674;2023-01-20T11:34:31;5.10;;;2.40;;
10596;SDS011;5346;48.766;8.674;2023-01-20T11:42:24;3.43;;;2.57;;
10596;SDS011;5346;48.766;8.674;2023-01-20T11:45:02;4.50;;;2.47;;
10596;SDS011;5346;48.766;8.674;2023-01-20T11:53:32;4.60;;;2.53;;
10596;SDS011;5346;48.766;8.674;2023-01-20T11:56:20;6.13;;;2.37;;
10596;SDS011;5346;48.766;8.674;2023-01-20T11:58:59;3.50;;;2.57;;
10596;SDS011;5346;48.766;8.674;2023-01-20T12:01:30;3.07;;;2.60;;
10596;SDS011;5346;48.766;8.674;2023-01-20T12:10:05;4.27;;;2.60;;
10596;SDS011;5346;48.766;8.674;2023-01-20T12:15:44;3.57;;;2.53;;
10596;SDS011;5346;48.766;8.674;2023-01-20T12:21:28;40.90;;;16.93;;
10596;SDS011;5346;48.766;8.674;2023-01-20T12:27:10;3.83;;;2.47;;
10596;SDS011;5346;48.766;8.674;2023-01-20T12:29:54;3.10;;;2.10;;
10596;SDS011;5346;48.766;8.674;2023-01-20T12:32:27;4.67;;;2.20;;
10596;SDS011;5346;48.766;8.674;2023-01-20T12:35:02;3.67;;;2.33;;
10596;SDS011;5346;48.766;8.674;2023-01-20T12:37:38;3.67;;;2.20;;
10596;SDS011;5346;48.766;8.674;2023-01-20T12:40:49;4.90;;;2.53;;
10596;SDS011;5346;48.766;8.674;2023-01-20T12:46:40;6.97;;;3.60;;
10596;SDS011;5346;48.766;8.674;2023-01-20T12:49:44;7.73;;;4.27;;
10596;SDS011;5346;48.766;8.674;2023-01-20T12:52:29;4.10;;;2.70;;
10596;SDS011;5346;48.766;8.674;2023-01-20T12:55:36;3.90;;;2.73;;
10596;SDS011;5346;48.766;8.674;2023-01-20T12:58:32;8.90;;;2.80;;
10596;SDS011;5346;48.766;8.674;2023-01-20T13:01:15;4.60;;;2.50;;
10596;SDS011;5346;48.766;8.674;2023-01-20T13:12:47;2.70;;;1.90;;
10596;SDS011;5346;48.766;8.674;2023-01-20T13:15:33;2.30;;;1.73;;
10596;SDS011;5346;48.766;8.674;2023-01-20T13:21:13;4.70;;;1.97;;
10596;SDS011;5346;48.766;8.674;2023-01-20T13:23:44;3.67;;;1.93;;
10596;SDS011;5346;48.766;8.674;2023-01-20T13:26:19;3.27;;;2.00;;
10596;SDS011;5346;48.766;8.674;2023-01-20T13:28:54;3.87;;;1.80;;
10596;SDS011;5346;48.766;8.674;2023-01-20T13:34:33;3.90;;;2.00;;
10596;SDS011;5346;48.766;8.674;2023-01-20T13:40:46;2.80;;;1.80;;
10596;SDS011;5346;48.766;8.674;2023-01-20T13:48:42;2.73;;;1.87;;
10596;SDS011;5346;48.766;8.674;2023-01-20T13:51:50;3.23;;;1.83;;
10596;SDS011;5346;48.766;8.674;2023-01-20T13:57:34;3.73;;;1.60;;
10596;SDS011;5346;48.766;8.674;2023-01-20T14:00:10;4.57;;;1.97;;
10596;SDS011;5346;48.766;8.674;2023-01-20T14:02:45;3.63;;;1.70;;
10596;SDS011;5346;48.766;8.674;2023-01-20T14:05:21;2.60;;;1.97;;
10596;SDS011;5346;48.766;8.674;2023-01-20T14:07:58;2.90;;;1.80;;
10596;SDS011;5346;48.766;8.674;2023-01-20T14:10:26;2.63;;;1.97;;
10596;SDS011;5346;48.766;8.674;2023-01-20T14:13:07;1.97;;;1.60;;
10596;SDS011;5346;48.766;8.674;2023-01-20T14:15:46;2.67;;;1.80;;
10596;SDS011;5346;48.766;8.674;2023-01-20T14:18:22;2.37;;;1.50;;
10596;SDS011;5346;48.766;8.674;2023-01-20T14:23:52;2.37;;;1.67;;
10596;SDS011;5346;48.766;8.674;2023-01-20T14:26:29;2.83;;;1.70;;
10596;SDS011;5346;48.766;8.674;2023-01-20T14:28:58;3.73;;;1.47;;
10596;SDS011;5346;48.766;8.674;2023-01-20T14:31:35;2.53;;;1.57;;
10596;SDS011;5346;48.766;8.674;2023-01-20T14:34:31;1.90;;;1.50;;
10596;SDS011;5346;48.766;8.674;2023-01-20T14:40:06;3.87;;;1.73;;
10596;SDS011;5346;48.766;8.674;2023-01-20T14:43:03;4.43;;;1.60;;
10596;SDS011;5346;48.766;8.674;2023-01-20T14:45:51;2.13;;;1.50;;
10596;SDS011;5346;48.766;8.674;2023-01-20T14:48:26;2.47;;;1.67;;
10596;SDS011;5346;48.766;8.674;2023-01-20T14:51:06;5.90;;;1.60;;
10596;SDS011;5346;48.766;8.674;2023-01-20T14:53:41;2.77;;;1.67;;
10596;SDS011;5346;48.766;8.674;2023-01-20T14:56:19;3.43;;;1.90;;
10596;SDS011;5346;48.766;8.674;2023-01-20T14:58:54;2.40;;;1.70;;
10596;SDS011;5346;48.766;8.674;2023-01-20T15:01:24;1.70;;;1.50;;
10596;SDS011;5346;48.766;8.674;2023-01-20T15:03:58;3.73;;;1.77;;
10596;SDS011;5346;48.766;8.674;2023-01-20T15:06:37;2.00;;;1.50;;
10596;SDS011;5346;48.766;8.674;2023-01-20T15:09:23;2.37;;;1.80;;
10596;SDS011;5346;48.766;8.674;2023-01-20T15:15:26;6.90;;;3.83;;
10596;SDS011;5346;48.766;8.674;2023-01-20T15:20:53;6.80;;;3.27;;
10596;SDS011;5346;48.766;8.674;2023-01-20T15:23:41;5.83;;;3.10;;
10596;SDS011;5346;48.766;8.674;2023-01-20T15:32:09;4.70;;;2.93;;
10596;SDS011;5346;48.766;8.674;2023-01-20T15:34:38;6.40;;;3.53;;
10596;SDS011;5346;48.766;8.674;2023-01-20T15:37:14;5.87;;;3.57;;
10596;SDS011;5346;48.766;8.674;2023-01-20T15:39:51;7.03;;;3.87;;
10596;SDS011;5346;48.766;8.674;2023-01-20T15:42:19;7.97;;;3.17;;
10596;SDS011;5346;48.766;8.674;2023-01-20T15:44:55;4.53;;;2.90;;
10596;SDS011;5346;48.766;8.674;2023-01-20T15:47:29;6.63;;;3.00;;
10596;SDS011;5346;48.766;8.674;2023-01-20T15:50:18;5.67;;;3.10;;
10596;SDS011;5346;48.766;8.674;2023-01-20T15:52:48;3.97;;;2.53;;
10596;SDS011;5346;48.766;8.674;2023-01-20T15:55:29;5.17;;;2.60;;
10596;SDS011;5346;48.766;8.674;2023-01-20T15:57:57;3.90;;;2.83;;
10596;SDS011;5346;48.766;8.674;2023-01-20T16:00:31;4.77;;;2.40;;
10596;SDS011;5346;48.766;8.674;2023-01-20T16:02:59;7.20;;;2.60;;
10596;SDS011;5346;48.766;8.674;2023-01-20T16:05:35;5.10;;;2.57;;
10596;SDS011;5346;48.766;8.674;2023-01-20T16:08:08;5.03;;;2.87;;
10596;SDS011;5346;48.766;8.674;2023-01-20T16:10:47;3.13;;;2.20;;
10596;SDS011;5346;48.766;8.674;2023-01-20T16:13:15;5.47;;;2.33;;
10596;SDS011;5346;48.766;8.674;2023-01-20T16:15:49;3.30;;;2.40;;
10596;SDS011;5346;48.766;8.674;2023-01-20T16:18:17;4.57;;;2.53;;
10596;SDS011;5346;48.766;8.674;2023-01-20T16:20:52;3.57;;;2.40;;
10596;SDS011;5346;48.766;8.674;2023-01-20T16:23:26;4.87;;;2.80;;
10596;SDS011;5346;48.766;8.674;2023-01-20T16:26:00;3.80;;;2.77;;
10596;SDS011;5346;48.766;8.674;2023-01-20T16:28:35;3.30;;;2.90;;
10596;SDS011;5346;48.766;8.674;2023-01-20T16:31:10;4.53;;;2.93;;
10596;SDS011;5346;48.766;8.674;2023-01-20T16:33:38;4.90;;;2.70;;
10596;SDS011;5346;48.766;8.674;2023-01-20T16:36:15;11.23;;;3.40;;
10596;SDS011;5346;48.766;8.674;2023-01-20T16:38:52;5.27;;;3.50;;
10596;SDS011;5346;48.766;8.674;2023-01-20T16:41:26;3.73;;;2.80;;
10596;SDS011;5346;48.766;8.674;2023-01-20T16:43:56;6.30;;;3.17;;
10596;SDS011;5346;48.766;8.674;2023-01-20T16:46:31;4.70;;;3.60;;
10596;SDS011;5346;48.766;8.674;2023-01-20T16:48:59;8.40;;;5.57;;
10596;SDS011;5346;48.766;8.674;2023-01-20T16:51:41;6.87;;;3.87;;
10596;SDS011;5346;48.766;8.674;2023-01-20T16:54:22;7.87;;;5.50;;
10596;SDS011;5346;48.766;8.674;2023-01-20T16:56:56;8.17;;;4.33;;
10596;SDS011;5346;48.766;8.674;2023-01-20T16:59:32;4.20;;;3.60;;
10596;SDS011;5346;48.766;8.674;2023-01-20T17:02:00;4.20;;;3.10;;
10596;SDS011;5346;48.766;8.674;2023-01-20T17:04:34;6.90;;;2.80;;
10596;SDS011;5346;48.766;8.674;2023-01-20T17:07:07;6.07;;;3.67;;
10596;SDS011;5346;48.766;8.674;2023-01-20T17:09:35;6.57;;;3.83;;
10596;SDS011;5346;48.766;8.674;2023-01-20T17:12:08;5.07;;;3.73;;
10596;SDS011;5346;48.766;8.674;2023-01-20T17:14:44;5.80;;;3.60;;
10596;SDS011;5346;48.766;8.674;2023-01-20T17:17:20;5.27;;;3.20;;
10596;SDS011;5346;48.766;8.674;2023-01-20T17:19:48;4.13;;;2.77;;
10596;SDS011;5346;48.766;8.674;2023-01-20T17:22:21;5.23;;;3.30;;
10596;SDS011;5346;48.766;8.674;2023-01-20T17:24:49;4.40;;;3.07;;
10596;SDS011;5346;48.766;8.674;2023-01-20T17:27:25;5.37;;;2.90;;
10596;SDS011;5346;48.766;8.674;2023-01-20T17:29:58;6.33;;;3.10;;
10596;SDS011;5346;48.766;8.674;2023-01-20T17:32:33;3.63;;;2.73;;
10596;SDS011;5346;48.766;8.674;2023-01-20T17:35:08;3.37;;;2.60;;
10596;SDS011;5346;48.766;8.674;2023-01-20T17:37:42;5.37;;;3.50;;
10596;SDS011;5346;48.766;8.674;2023-01-20T17:40:10;4.93;;;3.03;;
10596;SDS011;5346;48.766;8.674;2023-01-20T17:42:44;26.13;;;14.30;;
10596;SDS011;5346;48.766;8.674;2023-01-20T17:45:12;41.60;;;17.23;;
10596;SDS011;5346;48.766;8.674;2023-01-20T17:47:50;57.00;;;24.40;;
10596;SDS011;5346;48.766;8.674;2023-01-20T17:50:17;26.23;;;11.17;;
10596;SDS011;5346;48.766;8.674;2023-01-20T17:52:58;8.70;;;4.27;;
10596;SDS011;5346;48.766;8.674;2023-01-20T17:55:39;21.57;;;12.13;;
10596;SDS011;5346;48.766;8.674;2023-01-20T17:58:13;7.57;;;4.03;;
10596;SDS011;5346;48.766;8.674;2023-01-20T18:00:41;4.43;;;3.27;;